createdAt,value
2019-05-02T00:01:29.183Z,7.43
2019-05-02T00:03:58.684Z,7.53
2019-05-02T00:06:28.354Z,10.03
2019-05-02T00:08:57.642Z,9.53
2019-05-02T00:11:28.597Z,8.73
2019-05-02T00:13:57.841Z,9.23
2019-05-02T00:16:28.141Z,11.53
2019-05-02T00:18:57.686Z,11.57
2019-05-02T00:21:28.427Z,12.03
2019-05-02T00:23:59.136Z,7.97
2019-05-02T00:26:28.501Z,8.07
2019-05-02T00:28:57.945Z,8.37
2019-05-02T00:31:27.507Z,8.97
2019-05-02T00:33:56.606Z,9.63
2019-05-02T00:36:25.805Z,8.73
2019-05-02T00:38:54.941Z,9.93
2019-05-02T00:41:24.081Z,9.87
2019-05-02T00:43:53.222Z,8.70
2019-05-02T00:46:22.480Z,12.03
2019-05-02T00:48:59.641Z,9.30
2019-05-02T00:51:28.765Z,8.10
2019-05-02T00:53:58.168Z,10.17
2019-05-02T00:56:27.320Z,8.27
2019-05-02T00:58:56.459Z,9.60
2019-05-02T01:01:45.065Z,11.90
2019-05-02T01:04:23.254Z,8.17
2019-05-02T01:06:53.669Z,9.20
2019-05-02T01:09:22.800Z,8.93
2019-05-02T01:11:51.947Z,8.37
2019-05-02T01:14:21.094Z,8.47
2019-05-02T01:16:54.421Z,10.93
2019-05-02T01:19:21.436Z,9.23
2019-05-02T01:21:50.655Z,12.03
2019-05-02T01:24:19.781Z,8.40
2019-05-02T01:27:04.660Z,10.53
2019-05-02T01:29:41.703Z,8.30
2019-05-02T01:32:30.073Z,8.07
2019-05-02T01:35:17.269Z,9.13
2019-05-02T01:38:14.680Z,8.60
2019-05-02T01:40:48.109Z,9.80
2019-05-02T01:43:27.260Z,11.37
2019-05-02T01:45:56.425Z,11.70
2019-05-02T01:48:26.291Z,8.07
2019-05-02T01:50:55.451Z,8.57
2019-05-02T01:53:32.332Z,8.63
2019-05-02T01:55:57.725Z,10.53
2019-05-02T01:58:27.756Z,9.53
2019-05-02T02:00:57.005Z,8.20
2019-05-02T02:03:26.146Z,11.33
2019-05-02T02:05:55.463Z,9.67
2019-05-02T02:08:27.365Z,13.30
2019-05-02T02:10:58.128Z,10.53
2019-05-02T02:13:31.235Z,9.63
2019-05-02T02:16:00.142Z,10.73
2019-05-02T02:18:30.354Z,12.40
2019-05-02T02:21:25.668Z,9.77
2019-05-02T02:24:09.277Z,7.77
2019-05-02T02:26:38.497Z,16.47
2019-05-02T02:29:09.199Z,9.43
2019-05-02T02:31:39.716Z,8.53
2019-05-02T02:34:09.463Z,10.57
2019-05-02T02:36:38.635Z,10.40
2019-05-02T02:39:14.213Z,10.67
2019-05-02T02:41:39.297Z,11.83
2019-05-02T02:44:33.562Z,8.53
2019-05-02T02:47:01.079Z,9.17
2019-05-02T02:49:30.205Z,8.57
2019-05-02T02:52:04.684Z,9.17
2019-05-02T02:54:30.427Z,9.90
2019-05-02T02:56:59.612Z,11.10
2019-05-02T02:59:28.743Z,8.57
2019-05-02T03:02:08.653Z,10.43
2019-05-02T03:04:28.884Z,8.47
2019-05-02T03:06:58.095Z,9.97
2019-05-02T03:09:29.058Z,8.23
2019-05-02T03:12:16.248Z,12.20
2019-05-02T03:14:50.281Z,9.53
2019-05-02T03:17:26.538Z,11.37
2019-05-02T03:19:54.370Z,10.93
2019-05-02T03:22:21.492Z,12.70
2019-05-02T03:24:50.679Z,9.90
2019-05-02T03:27:20.073Z,10.60
2019-05-02T03:29:49.432Z,9.17
2019-05-02T03:32:36.483Z,10.00
2019-05-02T03:35:07.042Z,9.07
2019-05-02T03:37:36.278Z,18.17
2019-05-02T03:40:05.973Z,15.37
2019-05-02T03:42:43.682Z,11.67
2019-05-02T03:45:06.151Z,9.97
2019-05-02T03:47:37.078Z,10.33
2019-05-02T03:50:09.469Z,10.47
2019-05-02T03:52:43.460Z,9.43
2019-05-02T03:55:08.579Z,9.13
2019-05-02T03:57:41.734Z,9.40
2019-05-02T04:00:13.817Z,9.03
2019-05-02T04:02:40.028Z,11.33
2019-05-02T04:05:09.422Z,11.20
2019-05-02T04:07:40.583Z,11.40
2019-05-02T04:10:13.382Z,10.27
2019-05-02T04:12:41.632Z,13.43
2019-05-02T04:15:10.806Z,12.77
2019-05-02T04:17:41.846Z,8.70
2019-05-02T04:20:12.703Z,12.70
2019-05-02T04:22:48.505Z,11.03
2019-05-02T04:25:13.339Z,12.43
2019-05-02T04:27:42.954Z,10.63
2019-05-02T04:30:14.185Z,10.90
2019-05-02T04:32:49.628Z,13.87
2019-05-02T04:35:14.941Z,10.43
2019-05-02T04:37:44.130Z,10.00
2019-05-02T04:40:13.324Z,8.20
2019-05-02T04:42:42.426Z,10.87
2019-05-02T04:45:21.701Z,7.60
2019-05-02T04:47:42.780Z,11.80
2019-05-02T04:50:18.223Z,9.23
2019-05-02T04:52:48.338Z,9.93
2019-05-02T04:55:22.995Z,11.93
2019-05-02T04:57:48.060Z,13.87
2019-05-02T05:00:18.815Z,10.17
2019-05-02T05:02:49.668Z,10.20
2019-05-02T05:05:25.662Z,9.93
2019-05-02T05:07:49.870Z,11.40
2019-05-02T05:10:19.055Z,12.73
2019-05-02T05:12:48.232Z,16.13
2019-05-02T05:15:33.760Z,12.43
2019-05-02T05:17:50.080Z,12.00
2019-05-02T05:20:19.232Z,15.10
2019-05-02T05:22:48.600Z,11.33
2019-05-02T05:25:23.246Z,12.37
2019-05-02T05:27:57.236Z,11.13
2019-05-02T05:30:23.373Z,10.40
2019-05-02T05:32:52.557Z,11.30
2019-05-02T05:35:21.711Z,14.63
2019-05-02T05:37:53.143Z,14.63
2019-05-02T05:40:22.756Z,16.17
2019-05-02T05:42:52.780Z,12.27
2019-05-02T05:45:21.945Z,16.60
2019-05-02T05:47:52.493Z,11.20
2019-05-02T05:50:24.358Z,10.80
2019-05-02T05:52:53.588Z,9.83
2019-05-02T05:55:24.388Z,12.87
2019-05-02T05:57:59.955Z,14.07
2019-05-02T06:00:25.075Z,11.17
2019-05-02T06:03:01.367Z,11.43
2019-05-02T06:05:27.177Z,11.63
2019-05-02T06:07:57.534Z,14.33
2019-05-02T06:10:26.785Z,15.40
2019-05-02T06:12:56.257Z,15.57
2019-05-02T06:15:25.419Z,16.00
2019-05-02T06:17:54.671Z,12.70
2019-05-02T06:20:25.710Z,12.83
2019-05-02T06:22:59.553Z,16.13
2019-05-02T06:25:34.017Z,16.53
2019-05-02T06:28:00.235Z,12.53
2019-05-02T06:30:31.042Z,16.13
2019-05-02T06:32:58.790Z,17.17
2019-05-02T06:35:27.934Z,15.50
2019-05-02T06:37:57.129Z,19.10
2019-05-02T06:40:26.385Z,13.27
2019-05-02T06:43:09.710Z,16.80
2019-05-02T06:45:53.279Z,21.13
2019-05-02T06:48:23.547Z,18.80
2019-05-02T06:50:52.693Z,18.83
2019-05-02T06:53:22.109Z,18.20
2019-05-02T06:55:51.343Z,25.27
2019-05-02T06:58:37.113Z,22.43
2019-05-02T07:01:06.640Z,25.93
2019-05-02T07:03:35.965Z,27.40
2019-05-02T07:06:07.622Z,30.43
2019-05-02T07:08:36.220Z,31.73
2019-05-02T07:11:05.576Z,38.10
2019-05-02T07:13:36.287Z,33.87
2019-05-02T07:16:30.310Z,33.47
2019-05-02T07:18:49.963Z,40.33
2019-05-02T07:21:23.240Z,44.90
2019-05-02T07:23:53.529Z,53.07
2019-05-02T07:26:23.086Z,53.80
2019-05-02T07:28:51.883Z,55.23
2019-05-02T07:31:23.558Z,55.33
2019-05-02T07:33:52.792Z,58.47
2019-05-02T07:36:21.994Z,60.23
2019-05-02T07:38:51.158Z,66.07
2019-05-02T07:41:24.100Z,62.20
2019-05-02T07:43:52.157Z,56.80
2019-05-02T07:46:22.448Z,61.50
2019-05-02T07:48:54.482Z,56.80
2019-05-02T07:51:22.796Z,61.23
2019-05-02T07:53:52.002Z,65.07
2019-05-02T07:56:21.152Z,60.80
2019-05-02T07:58:50.328Z,69.40
2019-05-02T08:01:19.525Z,64.13
2019-05-02T08:03:48.711Z,73.53
2019-05-02T08:06:17.903Z,71.17
2019-05-02T08:08:47.100Z,74.13
2019-05-02T08:11:16.370Z,67.57
2019-05-02T08:13:49.521Z,74.23
2019-05-02T08:16:16.451Z,71.07
2019-05-02T08:18:45.743Z,75.73
2019-05-02T08:21:14.958Z,74.50
2019-05-02T08:23:44.128Z,67.87
2019-05-02T08:26:16.305Z,78.63
2019-05-02T08:28:56.255Z,72.07
2019-05-02T08:31:25.480Z,77.67
2019-05-02T08:33:54.742Z,69.43
2019-05-02T08:36:23.990Z,76.30
2019-05-02T08:38:54.064Z,77.00
2019-05-02T08:41:24.154Z,74.10
2019-05-02T08:43:53.343Z,65.27
2019-05-02T08:46:22.553Z,76.13
2019-05-02T08:48:51.762Z,76.23
2019-05-02T08:51:21.197Z,71.23
2019-05-02T08:53:52.116Z,70.50
2019-05-02T08:56:21.767Z,64.20
2019-05-02T08:58:52.193Z,67.47
2019-05-02T09:01:34.304Z,65.07
2019-05-02T09:03:56.914Z,70.67
2019-05-02T09:06:24.185Z,66.10
2019-05-02T09:08:53.475Z,67.00
2019-05-02T09:11:22.677Z,70.97
2019-05-02T09:13:52.579Z,71.40
2019-05-02T09:16:28.656Z,74.67
2019-05-02T09:18:54.143Z,73.20
2019-05-02T09:21:26.840Z,66.30
2019-05-02T09:23:54.433Z,68.20
2019-05-02T09:26:35.031Z,71.00
2019-05-02T09:28:56.327Z,64.43
2019-05-02T09:31:25.654Z,75.70
2019-05-02T09:33:55.679Z,69.47
2019-05-02T09:36:25.163Z,66.43
2019-05-02T09:38:57.551Z,69.30
2019-05-02T09:41:27.034Z,70.83
2019-05-02T09:43:56.564Z,66.27
2019-05-02T09:46:25.848Z,69.50
2019-05-02T09:48:57.121Z,70.08
2019-05-02T09:51:25.999Z,75.20
2019-05-02T09:53:57.018Z,71.28
2019-05-02T09:56:26.072Z,67.07
2019-05-02T09:59:06.315Z,67.97
2019-05-02T10:01:45.792Z,71.53
2019-05-02T10:04:15.022Z,67.82
2019-05-02T10:06:44.205Z,67.93
2019-05-02T10:09:13.395Z,62.77
2019-05-02T10:11:42.678Z,66.12
2019-05-02T10:14:12.861Z,59.85
2019-05-02T10:16:42.598Z,61.58
2019-05-02T10:19:13.565Z,63.35
2019-05-02T10:21:47.052Z,57.05
2019-05-02T10:24:14.245Z,53.40
2019-05-02T10:26:43.414Z,52.62
2019-05-02T10:29:12.835Z,49.90
2019-05-02T10:31:42.385Z,66.35
2019-05-02T10:34:16.275Z,54.25
2019-05-02T10:36:45.216Z,52.90
2019-05-02T10:39:15.843Z,55.90
2019-05-02T10:41:45.009Z,61.58
2019-05-02T10:44:14.207Z,49.58
2019-05-02T10:46:57.768Z,52.88
2019-05-02T10:49:32.192Z,46.20
2019-05-02T10:52:02.589Z,52.17
2019-05-02T10:54:33.826Z,49.50
2019-05-02T10:57:02.779Z,48.73
2019-05-02T10:59:32.794Z,47.40
2019-05-02T11:02:10.307Z,48.93
2019-05-02T11:04:44.173Z,48.75
2019-05-02T11:07:17.079Z,53.80
2019-05-02T11:09:44.378Z,46.25
2019-05-02T11:12:24.297Z,43.40
2019-05-02T11:15:02.170Z,47.95
2019-05-02T11:17:36.477Z,47.90
2019-05-02T11:20:09.015Z,46.73
2019-05-02T11:22:38.285Z,44.50
2019-05-02T11:25:07.559Z,48.83
2019-05-02T11:27:36.875Z,45.88
2019-05-02T11:30:07.474Z,46.35
2019-05-02T11:32:41.634Z,49.85
2019-05-02T11:35:12.199Z,50.73
2019-05-02T11:37:42.262Z,49.15
2019-05-02T11:40:12.888Z,42.78
2019-05-02T11:42:42.230Z,45.23
2019-05-02T11:45:12.209Z,43.38
2019-05-02T11:47:42.273Z,44.85
2019-05-02T11:50:12.019Z,55.00
2019-05-02T11:52:42.431Z,44.60
2019-05-02T11:55:12.977Z,39.70
2019-05-02T11:57:42.706Z,34.75
2019-05-02T12:00:12.772Z,41.10
2019-05-02T12:03:04.014Z,35.35
2019-05-02T12:05:39.284Z,36.55
2019-05-02T12:08:09.592Z,33.90
2019-05-02T12:10:39.607Z,36.38
2019-05-02T12:13:11.921Z,34.80
2019-05-02T12:15:42.121Z,35.10
2019-05-02T12:18:12.092Z,34.13
2019-05-02T12:20:42.536Z,38.42
2019-05-02T12:23:13.007Z,35.55
2019-05-02T12:25:42.531Z,35.50
2019-05-02T12:28:12.109Z,32.48
2019-05-02T12:30:42.064Z,35.35
2019-05-02T12:33:12.394Z,36.70
2019-05-02T12:35:43.269Z,31.73
2019-05-02T12:38:12.868Z,29.87
2019-05-02T12:40:42.336Z,27.42
2019-05-02T12:43:12.737Z,28.12
2019-05-02T12:45:42.262Z,27.85
2019-05-02T12:48:12.952Z,25.68
2019-05-02T12:50:42.296Z,23.83
2019-05-02T12:53:12.603Z,25.05
2019-05-02T12:55:42.253Z,25.05
2019-05-02T12:58:12.703Z,26.35
2019-05-02T13:00:43.079Z,25.77
2019-05-02T13:03:31.804Z,30.40
2019-05-02T13:06:03.172Z,27.07
2019-05-02T13:08:32.417Z,28.90
2019-05-02T13:11:22.250Z,24.35
2019-05-02T13:13:53.330Z,23.95
2019-05-02T13:16:22.766Z,24.65
2019-05-02T13:18:52.080Z,27.32
2019-05-02T13:21:41.464Z,27.20
2019-05-02T13:24:27.309Z,27.73
2019-05-02T13:26:59.401Z,28.15
2019-05-02T13:29:24.963Z,27.85
2019-05-02T13:32:19.024Z,27.35
2019-05-02T13:35:12.718Z,26.70
2019-05-02T13:37:42.483Z,24.73
2019-05-02T13:40:22.590Z,26.68
2019-05-02T13:42:52.351Z,35.05
2019-05-02T13:45:34.823Z,27.85
2019-05-02T13:48:04.352Z,24.92
2019-05-02T13:50:33.563Z,29.55
2019-05-02T13:53:03.210Z,26.30
2019-05-02T13:55:37.450Z,24.52
2019-05-02T13:58:06.608Z,23.10
2019-05-02T14:00:44.405Z,19.05
2019-05-02T14:03:13.905Z,19.00
2019-05-02T14:05:50.759Z,22.67
2019-05-02T14:08:37.947Z,23.15
2019-05-02T14:11:43.381Z,20.52
2019-05-02T14:14:12.474Z,19.73
2019-05-02T14:16:42.062Z,19.67
2019-05-02T14:19:12.632Z,24.60
2019-05-02T14:21:42.217Z,20.68
2019-05-02T14:24:11.868Z,18.17
2019-05-02T14:26:43.259Z,16.48
2019-05-02T14:29:16.104Z,20.23
2019-05-02T14:31:43.033Z,21.50
2019-05-02T14:34:42.586Z,19.55
2019-05-02T14:37:11.975Z,19.45
2019-05-02T14:39:41.812Z,18.67
2019-05-02T14:42:15.300Z,19.10
2019-05-02T14:45:04.071Z,14.63
2019-05-02T14:47:18.151Z,17.82
2019-05-02T14:49:44.625Z,12.82
2019-05-02T14:52:13.813Z,15.43
2019-05-02T14:54:47.781Z,12.98
2019-05-02T14:57:17.032Z,14.73
2019-05-02T14:59:50.408Z,13.00
2019-05-02T15:02:39.267Z,13.88
2019-05-02T15:05:08.838Z,11.83
2019-05-02T15:07:38.528Z,14.95
2019-05-02T15:10:08.005Z,16.70
2019-05-02T15:12:37.353Z,15.35
2019-05-02T15:15:08.951Z,14.05
2019-05-02T15:17:41.883Z,11.93
2019-05-02T15:20:12.988Z,13.20
2019-05-02T15:22:42.550Z,11.33
2019-05-02T15:25:13.559Z,12.90
2019-05-02T15:27:45.143Z,11.73
2019-05-02T15:30:15.962Z,10.13
2019-05-02T15:32:54.748Z,11.10
2019-05-02T15:35:28.381Z,9.48
2019-05-02T15:38:02.611Z,12.65
2019-05-02T15:43:02.419Z,13.30
2019-05-02T15:45:29.310Z,11.97
2019-05-02T15:47:58.682Z,10.28
2019-05-02T15:50:29.097Z,11.23
2019-05-02T15:53:17.513Z,12.30
2019-05-02T15:55:46.901Z,12.57
2019-05-02T15:58:22.948Z,14.80
2019-05-02T16:00:56.607Z,10.60
2019-05-02T16:03:45.475Z,12.13
2019-05-02T16:06:16.360Z,11.83
2019-05-02T16:08:46.421Z,13.43
2019-05-02T16:11:17.342Z,13.03
2019-05-02T16:13:52.738Z,11.10
2019-05-02T16:16:18.947Z,13.83
2019-05-02T16:18:48.128Z,17.77
2019-05-02T16:21:28.436Z,12.70
2019-05-02T16:24:14.717Z,13.73
2019-05-02T16:26:46.758Z,14.47
2019-05-02T16:29:19.472Z,10.60
2019-05-02T16:31:47.321Z,8.00
2019-05-02T16:34:16.599Z,14.77
2019-05-02T16:36:45.774Z,13.53
2019-05-02T16:39:15.398Z,18.63
2019-05-02T16:41:49.074Z,20.97
2019-05-02T16:44:15.729Z,16.63
2019-05-02T16:46:44.995Z,16.50
2019-05-02T16:49:17.083Z,18.10
2019-05-02T16:51:45.525Z,17.00
2019-05-02T16:54:14.743Z,17.57
2019-05-02T16:56:45.922Z,16.93
2019-05-02T16:59:16.980Z,22.83
2019-05-02T17:01:47.496Z,18.73
2019-05-02T17:04:16.920Z,19.23
2019-05-02T17:06:46.269Z,17.00
2019-05-02T17:09:28.797Z,18.83
2019-05-02T17:11:59.311Z,17.63
2019-05-02T17:14:28.620Z,20.00
2019-05-02T17:16:58.982Z,20.10
2019-05-02T17:19:33.357Z,20.73
2019-05-02T17:21:59.141Z,18.33
2019-05-02T17:24:28.578Z,16.57
2019-05-02T17:26:57.852Z,15.77
2019-05-02T17:29:27.173Z,18.37
2019-05-02T17:31:59.242Z,18.47
2019-05-02T17:34:30.242Z,19.90
2019-05-02T17:36:59.187Z,16.53
2019-05-02T17:39:30.890Z,15.47
2019-05-02T17:42:00.934Z,15.83
2019-05-02T17:44:31.097Z,19.77
2019-05-02T17:47:01.798Z,15.70
2019-05-02T17:49:36.679Z,15.87
2019-05-02T17:52:26.885Z,16.83
2019-05-02T17:54:57.376Z,17.97
2019-05-02T17:57:28.649Z,17.23
2019-05-02T17:59:57.707Z,19.37
2019-05-02T18:02:26.939Z,22.30
2019-05-02T18:04:56.099Z,18.23
2019-05-02T18:07:31.920Z,16.90
2019-05-02T18:09:56.208Z,18.13
2019-05-02T18:12:25.714Z,17.40
2019-05-02T18:14:59.084Z,18.00
2019-05-02T18:17:27.579Z,18.60
2019-05-02T18:20:02.212Z,19.63
2019-05-02T18:22:28.088Z,19.10
2019-05-02T18:24:57.385Z,19.40
2019-05-02T18:27:26.673Z,16.77
2019-05-02T18:29:55.955Z,19.47
2019-05-02T18:32:26.248Z,17.10
2019-05-02T18:34:56.906Z,22.40
2019-05-02T18:37:26.531Z,18.53
2019-05-02T18:39:56.118Z,22.30
2019-05-02T18:42:25.686Z,22.67
2019-05-02T18:44:54.934Z,21.27
2019-05-02T18:47:24.890Z,24.37
2019-05-02T18:50:00.671Z,22.83
2019-05-02T18:52:35.648Z,24.63
2019-05-02T18:54:56.215Z,24.63
2019-05-02T18:57:26.077Z,23.97
2019-05-02T18:59:56.458Z,26.93
2019-05-02T19:02:31.181Z,27.50
2019-05-02T19:04:57.327Z,29.00
2019-05-02T19:07:33.209Z,32.17
2019-05-02T19:09:58.846Z,39.30
2019-05-02T19:12:28.614Z,29.90
2019-05-02T19:15:03.171Z,32.47
2019-05-02T19:17:28.797Z,31.87
2019-05-02T19:19:58.168Z,31.97
2019-05-02T19:22:27.363Z,34.87
2019-05-02T19:24:56.720Z,36.23
2019-05-02T19:27:43.622Z,37.90
2019-05-02T19:30:13.413Z,35.77
2019-05-02T19:32:42.611Z,40.37
2019-05-02T19:35:11.904Z,37.80
2019-05-02T19:37:46.040Z,42.70
2019-05-02T19:40:14.923Z,37.07
2019-05-02T19:42:45.033Z,39.43
2019-05-02T19:45:16.880Z,41.30
2019-05-02T19:48:04.230Z,43.27
2019-05-02T19:50:43.983Z,40.53
2019-05-02T19:53:18.124Z,38.60
2019-05-02T19:55:43.065Z,37.30
2019-05-02T19:58:12.493Z,38.17
2019-05-02T20:00:46.081Z,40.27
2019-05-02T20:03:13.697Z,42.73
2019-05-02T20:05:43.917Z,41.07
2019-05-02T20:08:14.827Z,40.87
2019-05-02T20:10:44.024Z,48.30
2019-05-02T20:13:13.366Z,47.73
2019-05-02T20:15:47.122Z,41.27
2019-05-02T20:18:16.305Z,40.93
2019-05-02T20:21:06.383Z,47.00
2019-05-02T20:23:35.904Z,47.97
2019-05-02T20:26:09.400Z,44.70
2019-05-02T20:28:36.189Z,45.77
2019-05-02T20:31:05.517Z,45.33
2019-05-02T20:33:34.853Z,45.80
2019-05-02T20:36:04.179Z,44.97
2019-05-02T20:38:33.403Z,47.17
2019-05-02T20:41:03.023Z,44.37
2019-05-02T20:43:32.479Z,50.20
2019-05-02T20:46:02.640Z,50.17
2019-05-02T20:48:32.365Z,49.30
2019-05-02T20:51:02.717Z,45.87
2019-05-02T20:53:34.183Z,53.87
2019-05-02T20:56:02.899Z,53.20
2019-05-02T20:58:32.604Z,51.77
2019-05-02T21:01:08.562Z,47.37
2019-05-02T21:03:32.772Z,47.00
2019-05-02T21:06:12.228Z,48.13
2019-05-02T21:09:02.221Z,47.53
2019-05-02T21:11:32.394Z,47.03
2019-05-02T21:14:01.834Z,46.53
2019-05-02T21:16:32.247Z,50.17
2019-05-02T21:19:02.236Z,44.47
2019-05-02T21:21:32.919Z,53.93
2019-05-02T21:24:02.196Z,48.63
2019-05-02T21:26:32.873Z,50.10
2019-05-02T21:29:02.204Z,52.10
2019-05-02T21:31:31.898Z,59.83
2019-05-02T21:34:02.585Z,56.63
2019-05-02T21:36:32.061Z,53.83
2019-05-02T21:39:02.776Z,56.33
2019-05-02T21:41:33.078Z,56.50
2019-05-02T21:44:02.555Z,57.37
2019-05-02T21:46:31.902Z,58.63
2019-05-02T21:49:01.181Z,53.90
2019-05-02T21:51:46.483Z,63.37
2019-05-02T21:54:25.732Z,63.10
2019-05-02T21:57:02.636Z,67.87
2019-05-02T21:59:31.874Z,61.33
2019-05-02T22:02:02.401Z,62.70
2019-05-02T22:04:31.917Z,66.57
2019-05-02T22:07:01.050Z,71.10
2019-05-02T22:09:32.165Z,60.30
2019-05-02T22:12:01.572Z,66.60
2019-05-02T22:14:32.712Z,62.90
2019-05-02T22:17:02.301Z,63.47
2019-05-02T22:19:32.306Z,71.77
2019-05-02T22:22:01.736Z,64.00
2019-05-02T22:24:30.848Z,69.63
2019-05-02T22:27:01.802Z,64.70
2019-05-02T22:29:32.412Z,61.93
2019-05-02T22:32:02.999Z,67.57
2019-05-02T22:34:32.689Z,65.03
2019-05-02T22:37:02.573Z,66.73
2019-05-02T22:39:52.264Z,71.87
2019-05-02T22:42:21.916Z,72.93
2019-05-02T22:44:51.239Z,76.37
2019-05-02T22:47:22.597Z,67.93
2019-05-02T22:49:51.842Z,73.33
2019-05-02T22:52:21.792Z,70.23
2019-05-02T22:54:52.340Z,77.00
2019-05-02T22:57:22.609Z,75.93
2019-05-02T22:59:51.782Z,74.27
2019-05-02T23:02:21.971Z,78.00
2019-05-02T23:04:52.695Z,73.87
2019-05-02T23:07:22.296Z,70.47
2019-05-02T23:09:52.683Z,71.10
2019-05-02T23:12:24.622Z,72.47
2019-05-02T23:14:52.914Z,71.53
2019-05-02T23:17:23.164Z,72.20
2019-05-02T23:19:52.831Z,76.03
2019-05-02T23:22:22.014Z,63.07
2019-05-02T23:25:25.503Z,72.30
2019-05-02T23:27:58.336Z,71.17
2019-05-02T23:30:27.540Z,72.00
2019-05-02T23:32:56.732Z,72.20
2019-05-02T23:35:25.888Z,66.93
2019-05-02T23:37:55.044Z,70.97
2019-05-02T23:40:24.389Z,76.27
2019-05-02T23:42:53.559Z,75.37
2019-05-02T23:45:22.750Z,79.20
2019-05-02T23:47:52.773Z,75.57
2019-05-02T23:50:22.843Z,80.30
2019-05-02T23:52:52.205Z,79.90
2019-05-02T23:55:22.830Z,67.90
2019-05-02T23:57:52.374Z,75.10
